Time;durP1;ratioP1;P1;durP2;ratioP2;P2;SDS_P1;SDS_P2;PMS_P1;PMS_P2;Temp;Humidity;BMP_temperature;BMP_pressure;BME280_temperature;BME280_humidity;BME280_pressure;Samples;Min_cycle;Max_cycle;Signal;HPM_P1;HPM_P2
2022/08/29 00:01:34;;;;;;;15.68;11.38;;;28.60;99.90;;;;;;4158896;28;20453;-67
2022/08/29 00:03:40;;;;;;;16.40;11.45;;;28.60;99.90;;;;;;4158963;28;20140;-67
2022/08/29 00:05:45;;;;;;;16.90;10.98;;;28.70;99.90;;;;;;4158709;28;20053;-67
2022/08/29 00:07:54;;;;;;;14.70;10.98;;;28.80;99.90;;;;;;4159007;28;20060;-66
2022/08/29 00:10:00;;;;;;;17.23;10.30;;;28.90;99.90;;;;;;4158352;28;20049;-67
2022/08/29 00:12:06;;;;;;;16.90;12.25;;;29.00;99.90;;;;;;4158073;28;20077;-65
2022/08/29 00:14:13;;;;;;;25.58;13.27;;;29.10;99.90;;;;;;4159064;28;20130;-66
2022/08/29 00:16:28;;;;;;;17.60;12.32;;;29.20;99.90;;;;;;4158760;28;20078;-67
2022/08/29 00:18:34;;;;;;;20.13;11.70;;;29.30;99.90;;;;;;4156966;28;20562;-67
2022/08/29 00:20:40;;;;;;;19.20;11.88;;;29.40;99.90;;;;;;4158590;28;20057;-65
2022/08/29 00:22:47;;;;;;;18.13;11.23;;;29.50;99.90;;;;;;4158712;28;20057;-66
2022/08/29 00:24:51;;;;;;;18.42;11.88;;;29.50;99.90;;;;;;4158844;28;20041;-66
2022/08/29 00:26:59;;;;;;;16.30;11.57;;;29.60;99.90;;;;;;4158435;28;20056;-66
2022/08/29 00:29:04;;;;;;;16.35;11.52;;;29.60;99.90;;;;;;4141323;28;20108;-66
2022/08/29 00:31:08;;;;;;;23.48;12.63;;;29.60;99.90;;;;;;4157412;28;20488;-65
2022/08/29 00:33:13;;;;;;;19.90;13.48;;;29.60;99.90;;;;;;4157987;28;20060;-66
2022/08/29 00:35:21;;;;;;;20.48;13.32;;;29.60;99.90;;;;;;4157559;28;20120;-68
2022/08/29 00:37:25;;;;;;;18.00;13.20;;;29.60;99.90;;;;;;4172383;28;20069;-66
2022/08/29 00:39:30;;;;;;;22.00;13.38;;;29.70;99.90;;;;;;4158329;28;20526;-66
2022/08/29 00:41:37;;;;;;;22.30;14.10;;;29.80;99.90;;;;;;4158041;28;20063;-65
2022/08/29 00:43:43;;;;;;;19.60;12.23;;;29.70;99.90;;;;;;4158870;28;20049;-66
2022/08/29 00:46:03;;;;;;;16.63;11.15;;;29.50;99.90;;;;;;4158564;28;20049;-66
2022/08/29 00:48:13;;;;;;;17.70;12.50;;;29.40;99.90;;;;;;4123286;28;20051;-64
2022/08/29 00:50:33;;;;;;;16.65;11.80;;;29.40;99.90;;;;;;4160361;28;20735;-67
2022/08/29 00:52:41;;;;;;;13.38;9.65;;;29.50;99.90;;;;;;4161620;28;20049;-66
2022/08/29 00:54:50;;;;;;;13.93;8.95;;;29.60;99.90;;;;;;4160822;28;20562;-65
2022/08/29 00:56:54;;;;;;;12.75;8.48;;;29.80;99.90;;;;;;4160894;28;20152;-66
2022/08/29 00:59:05;;;;;;;13.27;8.90;;;29.80;99.90;;;;;;4160968;28;20461;-65
2022/08/29 01:01:09;;;;;;;11.50;8.52;;;29.80;99.90;;;;;;4162863;28;20435;-65
2022/08/29 01:03:14;;;;;;;14.95;9.57;;;29.90;99.90;;;;;;4162920;28;20055;-66
2022/08/29 01:05:21;;;;;;;12.30;7.72;;;30.00;99.90;;;;;;4164170;28;20520;-66
2022/08/29 01:07:27;;;;;;;12.52;7.45;;;30.10;99.90;;;;;;4163214;28;20079;-66
2022/08/29 01:09:32;;;;;;;8.00;6.38;;;30.20;99.90;;;;;;4163099;28;20080;-65
2022/08/29 01:13:57;;;;;;;9.13;6.28;;;30.30;99.90;;;;;;4163788;28;20582;-66
2022/08/29 01:16:03;;;;;;;9.98;6.28;;;30.30;99.90;;;;;;4163667;28;20756;-66
2022/08/29 01:18:09;;;;;;;9.27;6.72;;;30.40;99.90;;;;;;4163745;28;20041;-65
2022/08/29 01:20:33;;;;;;;9.35;5.90;;;30.40;99.90;;;;;;4163891;28;20073;-66
2022/08/29 01:23:17;;;;;;;8.55;5.75;;;30.40;99.90;;;;;;4179132;28;20056;-66
2022/08/29 01:25:25;;;;;;;7.45;5.10;;;30.40;99.90;;;;;;4163732;28;20579;-66
2022/08/29 01:27:30;;;;;;;9.15;5.28;;;30.50;99.90;;;;;;4163804;28;20083;-66
2022/08/29 01:29:34;;;;;;;7.55;4.60;;;30.50;99.90;;;;;;4156377;28;20053;-66
2022/08/29 01:31:47;;;;;;;7.13;5.05;;;30.60;99.90;;;;;;4153878;28;20573;-66
2022/08/29 01:34:00;;;;;;;7.20;5.20;;;30.60;99.90;;;;;;4154886;28;20049;-66
2022/08/29 01:36:05;;;;;;;8.23;5.15;;;30.60;99.90;;;;;;4163627;28;20037;-65
2022/08/29 01:38:26;;;;;;;6.25;4.78;;;30.60;99.90;;;;;;4163563;28;20087;-65
2022/08/29 01:40:31;;;;;;;6.22;4.50;;;30.60;99.90;;;;;;4163549;28;20049;-66
2022/08/29 01:42:35;;;;;;;7.45;4.53;;;30.50;99.90;;;;;;4162280;28;20049;-66
2022/08/29 01:44:48;;;;;;;5.75;4.80;;;30.50;99.90;;;;;;4162852;28;20064;-66
2022/08/29 01:46:55;;;;;;;6.05;4.40;;;30.50;99.90;;;;;;4177900;28;20048;-66
2022/08/29 01:49:06;;;;;;;5.93;4.25;;;30.50;99.90;;;;;;4162965;28;20055;-66
2022/08/29 01:51:15;;;;;;;6.68;4.57;;;30.50;99.90;;;;;;4163527;28;20089;-66
2022/08/29 01:53:19;;;;;;;7.72;4.25;;;30.50;99.90;;;;;;4163030;28;20053;-65
2022/08/29 01:55:23;;;;;;;9.32;4.13;;;30.50;99.90;;;;;;4162991;28;20144;-64
2022/08/29 01:57:32;;;;;;;9.90;3.17;;;30.40;99.90;;;;;;4162516;28;20128;-66
2022/08/29 01:59:37;;;;;;;5.15;2.45;;;30.20;99.90;;;;;;4162867;28;20042;-66
2022/08/29 02:02:20;;;;;;;3.63;1.90;;;30.20;99.90;;;;;;4162281;28;20180;-66
2022/08/29 02:04:28;;;;;;;4.03;1.73;;;30.20;99.90;;;;;;4178655;28;20107;-64
2022/08/29 02:06:33;;;;;;;3.40;1.50;;;30.00;99.90;;;;;;4163321;28;20678;-66
2022/08/29 02:08:38;;;;;;;3.35;1.75;;;29.90;99.90;;;;;;4178341;28;20059;-65
2022/08/29 02:10:47;;;;;;;2.33;1.17;;;29.90;99.90;;;;;;4163266;28;20059;-65
2022/08/29 02:12:52;;;;;;;1.70;1.23;;;29.90;99.90;;;;;;4163100;28;20050;-66
2022/08/29 02:14:59;;;;;;;2.58;1.20;;;29.90;99.90;;;;;;4163307;28;20668;-65
2022/08/29 02:17:07;;;;;;;2.30;1.17;;;30.00;99.90;;;;;;4163120;28;20038;-66
2022/08/29 02:19:11;;;;;;;4.40;1.35;;;30.00;99.90;;;;;;4163517;28;20042;-65
2022/08/29 02:21:17;;;;;;;2.85;1.63;;;30.00;99.90;;;;;;4163079;28;20716;-65
2022/08/29 02:23:25;;;;;;;1.80;1.40;;;30.10;99.90;;;;;;4160294;28;20076;-65
2022/08/29 02:25:43;;;;;;;2.42;1.40;;;30.10;99.90;;;;;;4161372;28;20045;-66
2022/08/29 02:27:51;;;;;;;2.50;1.38;;;30.30;99.90;;;;;;4162968;28;20041;-66
2022/08/29 02:30:00;;;;;;;2.90;1.55;;;30.60;99.90;;;;;;4163250;28;20041;-65
2022/08/29 02:32:13;;;;;;;7.05;2.00;;;30.70;99.90;;;;;;4160719;28;20042;-65
2022/08/29 02:34:18;;;;;;;2.97;1.70;;;30.70;99.90;;;;;;4162617;28;20053;-65
2022/08/29 02:36:28;;;;;;;3.10;1.70;;;30.80;99.90;;;;;;4161465;28;20131;-65
2022/08/29 02:38:34;;;;;;;3.40;1.70;;;31.00;99.90;;;;;;4163020;28;20132;-65
2022/08/29 02:40:39;;;;;;;3.15;1.63;;;31.10;99.90;;;;;;4162250;28;20137;-64
2022/08/29 02:42:46;;;;;;;5.13;1.70;;;31.20;99.90;;;;;;4162748;28;20073;-64
2022/08/29 02:44:52;;;;;;;4.47;1.48;;;31.20;99.90;;;;;;4162583;28;20226;-65
2022/08/29 02:46:57;;;;;;;3.90;1.58;;;31.30;99.90;;;;;;4162816;28;20053;-65
2022/08/29 02:49:04;;;;;;;3.20;1.50;;;31.30;99.90;;;;;;4111531;28;20051;-65
2022/08/29 02:51:17;;;;;;;1.25;1.05;;;31.40;99.90;;;;;;4162591;28;20053;-64
2022/08/29 02:53:23;;;;;;;3.17;1.23;;;31.50;99.90;;;;;;4162855;28;20046;-65
2022/08/29 02:55:30;;;;;;;2.30;1.40;;;31.60;99.90;;;;;;4162577;28;20045;-64
2022/08/29 02:57:36;;;;;;;5.55;1.98;;;31.70;99.90;;;;;;4162551;28;20056;-64
2022/08/29 02:59:41;;;;;;;4.50;1.23;;;31.70;99.90;;;;;;4161276;28;20542;-65
2022/08/29 03:01:47;;;;;;;1.98;1.20;;;31.80;99.90;;;;;;4162302;28;20393;-67
2022/08/29 03:03:52;;;;;;;1.77;1.20;;;31.90;99.90;;;;;;4162288;28;20138;-65
2022/08/29 03:05:56;;;;;;;2.05;1.35;;;31.90;99.90;;;;;;4162247;28;20219;-66
2022/08/29 03:08:06;;;;;;;4.25;1.60;;;32.00;99.90;;;;;;4162492;28;20103;-66
2022/08/29 03:10:11;;;;;;;2.88;1.40;;;32.10;99.90;;;;;;4162306;28;20045;-65
2022/08/29 03:12:17;;;;;;;5.53;1.98;;;32.10;99.90;;;;;;4162368;28;20115;-66
2022/08/29 03:14:24;;;;;;;2.85;1.50;;;32.10;99.90;;;;;;4161879;28;20045;-65
2022/08/29 03:16:32;;;;;;;3.13;1.88;;;32.10;99.90;;;;;;4161958;28;20045;-66
2022/08/29 03:18:37;;;;;;;5.25;1.83;;;32.00;99.90;;;;;;4162454;28;20064;-66
2022/08/29 03:20:44;;;;;;;2.67;1.48;;;32.10;99.90;;;;;;4162232;28;20052;-65
2022/08/29 03:22:49;;;;;;;3.13;1.70;;;32.10;99.90;;;;;;4161234;28;20041;-66
2022/08/29 03:24:54;;;;;;;12.43;2.25;;;32.20;99.90;;;;;;4161801;28;20049;-66
2022/08/29 03:27:00;;;;;;;4.43;2.05;;;32.20;99.90;;;;;;4160817;28;20050;-66
2022/08/29 03:29:06;;;;;;;4.50;1.75;;;32.30;99.90;;;;;;4162323;28;20061;-65
2022/08/29 03:31:11;;;;;;;2.75;1.70;;;32.30;99.90;;;;;;4160540;28;20050;-66
2022/08/29 03:33:18;;;;;;;2.10;1.60;;;32.40;99.90;;;;;;4162004;28;20411;-64
2022/08/29 03:35:24;;;;;;;3.83;1.58;;;32.50;99.90;;;;;;4161924;28;20115;-65
2022/08/29 03:37:29;;;;;;;2.30;1.65;;;32.50;99.90;;;;;;4162124;28;20095;-65
2022/08/29 03:39:36;;;;;;;4.55;1.90;;;32.50;99.80;;;;;;4126707;28;20112;-65
2022/08/29 03:41:43;;;;;;;2.55;1.58;;;32.50;99.80;;;;;;4159965;28;20045;-66
2022/08/29 03:43:47;;;;;;;3.92;1.92;;;32.60;99.50;;;;;;4161804;28;20051;-66
2022/08/29 03:45:54;;;;;;;3.00;1.50;;;32.50;99.50;;;;;;4161848;28;20056;-66
2022/08/29 03:48:00;;;;;;;3.85;2.00;;;32.60;99.60;;;;;;4161799;28;20046;-66
2022/08/29 03:50:05;;;;;;;2.92;2.15;;;32.60;99.60;;;;;;4147628;28;20480;-66
2022/08/29 03:52:12;;;;;;;3.10;2.28;;;32.70;99.50;;;;;;4145332;28;20042;-65
2022/08/29 03:54:19;;;;;;;3.03;2.28;;;32.70;99.50;;;;;;4144106;28;20042;-64
2022/08/29 03:56:23;;;;;;;3.70;2.30;;;32.80;99.30;;;;;;4145169;28;20381;-65
2022/08/29 03:58:28;;;;;;;2.97;2.08;;;32.80;99.20;;;;;;4145517;28;20393;-64
2022/08/29 04:00:35;;;;;;;6.18;2.10;;;32.60;99.20;;;;;;4148760;28;20041;-64
2022/08/29 04:02:43;;;;;;;4.95;2.22;;;32.60;99.60;;;;;;4161975;28;20132;-64
2022/08/29 04:07:13;;;;;;;2.92;1.90;;;33.00;99.20;;;;;;4161517;28;20449;-63
2022/08/29 04:09:17;;;;;;;3.60;1.75;;;33.10;99.30;;;;;;4161621;28;20132;-63
2022/08/29 04:11:25;;;;;;;3.83;1.88;;;33.10;99.40;;;;;;4161145;28;20128;-63
2022/08/29 04:13:31;;;;;;;2.92;1.58;;;33.20;98.90;;;;;;4161419;28;20150;-64
2022/08/29 04:15:36;;;;;;;3.08;1.60;;;33.20;98.10;;;;;;4161171;28;20073;-64
2022/08/29 04:17:45;;;;;;;2.60;1.88;;;33.40;98.40;;;;;;4144865;28;20088;-65
2022/08/29 04:19:55;;;;;;;2.63;1.40;;;33.40;98.50;;;;;;4161557;28;20049;-64
2022/08/29 04:22:00;;;;;;;3.72;1.60;;;33.40;97.60;;;;;;4161401;28;20048;-65
2022/08/29 04:24:07;;;;;;;4.25;1.77;;;33.30;97.30;;;;;;4162713;28;20047;-64
2022/08/29 04:26:13;;;;;;;2.60;1.60;;;33.40;97.90;;;;;;4165224;28;20045;-63
2022/08/29 04:28:38;;;;;;;2.08;1.38;;;33.50;97.40;;;;;;4165972;28;20049;-65
2022/08/29 04:30:47;;;;;;;1.60;1.40;;;33.60;97.10;;;;;;4165877;28;20056;-64
2022/08/29 04:32:57;;;;;;;2.28;1.52;;;33.60;96.70;;;;;;4166268;28;20049;-65
2022/08/29 04:35:01;;;;;;;2.92;1.45;;;33.70;96.70;;;;;;4165223;28;20038;-65
2022/08/29 04:37:08;;;;;;;5.38;1.80;;;33.70;96.80;;;;;;4166529;28;20107;-65
2022/08/29 04:39:13;;;;;;;2.63;1.70;;;33.80;96.70;;;;;;4166593;28;20041;-65
2022/08/29 04:41:18;;;;;;;3.05;1.75;;;33.80;96.50;;;;;;4166279;28;20077;-65
2022/08/29 04:43:24;;;;;;;4.15;1.80;;;33.80;95.40;;;;;;4166879;28;20050;-66
2022/08/29 04:45:32;;;;;;;1.90;1.55;;;33.90;96.00;;;;;;4166603;28;20045;-65
2022/08/29 04:47:36;;;;;;;5.22;1.50;;;33.80;96.00;;;;;;4165557;28;20053;-65
2022/08/29 04:49:43;;;;;;;2.28;1.20;;;34.00;96.10;;;;;;4166842;28;20152;-66
2022/08/29 04:51:51;;;;;;;2.33;1.50;;;34.10;96.20;;;;;;4166675;28;20050;-65
2022/08/29 04:53:55;;;;;;;3.05;2.00;;;34.10;95.80;;;;;;4166460;28;20037;-64
2022/08/29 04:56:05;;;;;;;2.58;1.63;;;34.10;95.60;;;;;;4166284;28;20053;-65
2022/08/29 04:58:14;;;;;;;3.50;1.63;;;34.20;95.30;;;;;;4166411;28;20042;-64
2022/08/29 05:00:20;;;;;;;4.15;1.73;;;34.20;95.20;;;;;;4162965;28;20045;-66
2022/08/29 05:02:27;;;;;;;4.03;1.80;;;34.10;95.20;;;;;;4166686;28;20516;-65
2022/08/29 05:04:33;;;;;;;3.00;1.58;;;34.00;95.50;;;;;;4181625;28;20114;-65
2022/08/29 05:06:38;;;;;;;3.63;1.50;;;34.00;95.70;;;;;;4166450;28;20103;-65
2022/08/29 05:08:44;;;;;;;2.58;1.55;;;34.00;95.50;;;;;;4166657;28;20506;-66
2022/08/29 05:10:57;;;;;;;2.60;1.58;;;34.00;95.30;;;;;;4166332;28;20115;-65
2022/08/29 05:13:01;;;;;;;2.85;1.40;;;34.00;95.30;;;;;;4165673;28;20049;-66
2022/08/29 05:15:07;;;;;;;2.38;1.30;;;34.00;95.10;;;;;;4166637;28;20045;-66
2022/08/29 05:17:14;;;;;;;2.67;1.60;;;34.00;94.50;;;;;;4166541;28;20676;-64
2022/08/29 05:19:22;;;;;;;2.38;1.50;;;33.90;94.80;;;;;;4166522;28;20076;-64
2022/08/29 05:21:33;;;;;;;3.17;1.50;;;34.00;94.80;;;;;;4166324;28;20149;-63
2022/08/29 05:23:40;;;;;;;3.05;1.25;;;34.10;94.80;;;;;;4166631;28;20063;-64
2022/08/29 05:25:45;;;;;;;2.42;1.65;;;34.20;94.30;;;;;;4166246;28;20052;-64
2022/08/29 05:27:52;;;;;;;2.53;1.48;;;34.30;94.00;;;;;;4165263;28;20440;-64
2022/08/29 05:29:58;;;;;;;4.43;1.45;;;34.30;94.00;;;;;;4163673;28;20049;-63
2022/08/29 05:32:03;;;;;;;4.60;1.67;;;34.40;93.70;;;;;;4165987;28;20065;-64
2022/08/29 05:34:11;;;;;;;3.72;1.58;;;34.40;93.80;;;;;;4166553;28;20120;-64
2022/08/29 05:36:38;;;;;;;3.97;1.90;;;34.50;93.80;;;;;;4163162;28;20451;-64
2022/08/29 05:38:42;;;;;;;3.10;1.63;;;34.60;93.40;;;;;;4163766;28;20045;-64
2022/08/29 05:40:49;;;;;;;2.70;1.70;;;34.60;93.10;;;;;;4163430;28;20065;-64
2022/08/29 05:42:55;;;;;;;5.90;1.88;;;34.40;92.40;;;;;;4163775;28;20581;-64
2022/08/29 05:45:02;;;;;;;3.95;1.73;;;34.50;92.90;;;;;;4163567;28;20063;-64
2022/08/29 05:47:10;;;;;;;2.55;1.70;;;34.50;93.10;;;;;;4163797;28;20775;-64
2022/08/29 05:49:16;;;;;;;2.55;1.65;;;34.60;93.40;;;;;;4163838;28;20065;-64
2022/08/29 05:51:23;;;;;;;4.30;1.70;;;34.70;93.30;;;;;;4163723;28;20045;-64
2022/08/29 05:53:29;;;;;;;2.58;1.67;;;34.70;93.10;;;;;;4163484;28;20079;-64
2022/08/29 05:55:42;;;;;;;2.17;1.50;;;34.80;92.90;;;;;;4163151;28;20084;-64
2022/08/29 05:57:50;;;;;;;2.15;1.88;;;34.70;92.70;;;;;;4162299;28;20053;-63
2022/08/29 05:59:56;;;;;;;1.92;1.42;;;34.50;92.00;;;;;;4163390;28;20034;-64
2022/08/29 06:02:03;;;;;;;2.50;1.60;;;34.20;92.60;;;;;;4163192;28;20053;-64
2022/08/29 06:04:08;;;;;;;2.22;1.70;;;34.30;92.80;;;;;;4163503;28;20083;-64
2022/08/29 06:06:13;;;;;;;2.90;1.60;;;34.40;92.80;;;;;;4163315;28;20045;-64
2022/08/29 06:08:19;;;;;;;1.85;1.50;;;34.30;93.00;;;;;;4163565;28;20049;-64
2022/08/29 06:10:23;;;;;;;2.55;1.70;;;34.20;93.10;;;;;;4163117;28;20503;-64
2022/08/29 06:12:30;;;;;;;2.25;1.63;;;34.30;93.20;;;;;;4163034;28;20423;-64
2022/08/29 06:14:37;;;;;;;2.53;1.60;;;34.40;93.10;;;;;;4163509;28;20119;-64
2022/08/29 06:16:41;;;;;;;5.70;1.75;;;34.40;92.40;;;;;;4163102;28;20113;-64
2022/08/29 06:18:47;;;;;;;2.70;1.70;;;34.50;92.60;;;;;;4162106;28;20169;-64
2022/08/29 06:20:56;;;;;;;2.42;1.55;;;34.50;92.60;;;;;;4163097;28;20140;-64
2022/08/29 06:23:00;;;;;;;2.28;1.80;;;34.60;93.00;;;;;;4163116;28;20412;-64
2022/08/29 06:25:07;;;;;;;3.30;1.80;;;34.80;92.90;;;;;;4162500;28;20053;-64
2022/08/29 06:27:34;;;;;;;3.22;2.25;;;34.90;92.80;;;;;;4163005;28;20049;-64
2022/08/29 06:29:39;;;;;;;2.05;1.75;;;35.00;92.10;;;;;;4163084;28;20058;-64
2022/08/29 06:31:46;;;;;;;2.25;1.55;;;35.00;92.10;;;;;;4127968;28;20043;-64
2022/08/29 06:33:59;;;;;;;2.90;1.90;;;35.00;92.00;;;;;;4146306;28;20136;-64
2022/08/29 06:36:05;;;;;;;3.33;2.22;;;35.20;91.80;;;;;;4146548;28;20096;-64
2022/08/29 06:38:12;;;;;;;2.53;1.70;;;35.20;91.60;;;;;;4146674;28;20056;-64
2022/08/29 06:40:19;;;;;;;3.72;2.03;;;35.30;91.60;;;;;;4146488;28;20054;-64
2022/08/29 06:42:24;;;;;;;3.60;2.00;;;35.30;91.60;;;;;;4146418;28;20552;-64
2022/08/29 06:44:31;;;;;;;4.03;1.90;;;35.30;92.00;;;;;;4146545;28;20518;-63
2022/08/29 06:46:42;;;;;;;3.60;1.80;;;35.40;91.90;;;;;;4146375;28;20054;-63
2022/08/29 06:48:46;;;;;;;2.58;1.80;;;35.50;91.90;;;;;;4146315;28;20081;-63
2022/08/29 06:50:53;;;;;;;3.13;1.65;;;35.50;91.80;;;;;;4146489;28;20081;-64
2022/08/29 06:52:59;;;;;;;3.10;2.08;;;35.60;91.60;;;;;;4146292;28;20057;-63
2022/08/29 06:55:24;;;;;;;5.03;2.05;;;35.60;91.30;;;;;;4146389;28;20046;-64
2022/08/29 06:57:31;;;;;;;2.88;1.80;;;35.60;91.20;;;;;;4146291;28;20130;-63
2022/08/29 06:59:37;;;;;;;3.80;1.73;;;35.60;90.90;;;;;;4146234;28;20044;-63
2022/08/29 07:01:42;;;;;;;4.65;1.80;;;35.60;90.30;;;;;;4158702;28;20115;-63
2022/08/29 07:03:46;;;;;;;2.28;1.70;;;35.50;90.90;;;;;;4162477;28;20107;-63
2022/08/29 07:05:53;;;;;;;5.22;2.25;;;35.50;91.10;;;;;;4162515;28;20083;-63
2022/08/29 07:07:57;;;;;;;4.25;1.90;;;35.60;91.00;;;;;;4162666;28;20049;-64
2022/08/29 07:10:05;;;;;;;2.42;1.73;;;35.70;91.10;;;;;;4162377;28;20049;-64
2022/08/29 07:12:11;;;;;;;2.28;2.00;;;35.60;91.20;;;;;;4161917;28;20075;-63
2022/08/29 07:14:16;;;;;;;4.55;2.50;;;35.60;91.00;;;;;;4162399;28;20034;-63
2022/08/29 07:16:22;;;;;;;4.43;2.10;;;35.30;91.50;;;;;;4176900;28;20527;-63
2022/08/29 07:18:30;;;;;;;2.78;2.10;;;35.30;91.70;;;;;;4162228;28;20584;-64
2022/08/29 07:20:36;;;;;;;4.40;2.38;;;35.40;91.60;;;;;;4162209;28;20053;-63
2022/08/29 07:22:49;;;;;;;4.97;2.25;;;35.50;91.40;;;;;;4162080;28;20100;-63
2022/08/29 07:24:56;;;;;;;3.88;2.22;;;35.30;91.40;;;;;;4161987;28;20042;-63
2022/08/29 07:27:00;;;;;;;6.00;2.33;;;35.20;91.60;;;;;;4160583;28;20049;-64
2022/08/29 07:29:08;;;;;;;3.60;2.35;;;35.20;91.60;;;;;;4161054;28;20049;-63
2022/08/29 07:31:13;;;;;;;3.42;2.35;;;35.30;91.70;;;;;;4162049;28;20656;-63
2022/08/29 07:33:17;;;;;;;3.40;2.30;;;35.50;91.50;;;;;;4161989;28;20045;-63
2022/08/29 07:35:24;;;;;;;3.90;2.08;;;35.50;91.10;;;;;;4161951;28;20099;-63
2022/08/29 07:37:33;;;;;;;3.65;2.20;;;35.50;91.20;;;;;;4161689;28;20049;-63
2022/08/29 07:39:38;;;;;;;2.95;2.17;;;35.50;91.20;;;;;;4148455;28;20048;-62
2022/08/29 07:41:45;;;;;;;2.88;2.17;;;35.60;90.50;;;;;;4110561;28;20470;-63
2022/08/29 07:43:52;;;;;;;4.00;1.90;;;35.50;90.90;;;;;;4145468;28;20057;-63
2022/08/29 07:45:56;;;;;;;4.97;2.08;;;35.50;90.40;;;;;;4145696;28;20042;-64
2022/08/29 07:48:02;;;;;;;3.70;1.83;;;35.50;90.60;;;;;;4145204;28;20046;-64
2022/08/29 07:50:13;;;;;;;5.10;1.95;;;35.60;90.60;;;;;;4145538;28;20046;-63
2022/08/29 07:52:17;;;;;;;3.20;1.90;;;35.60;90.90;;;;;;4145664;28;20058;-63
2022/08/29 07:54:22;;;;;;;4.80;2.17;;;35.60;90.90;;;;;;4145374;28;20136;-63
2022/08/29 07:56:38;;;;;;;4.68;2.30;;;35.70;90.90;;;;;;4145458;28;20050;-64
2022/08/29 07:58:42;;;;;;;3.08;2.00;;;35.70;90.60;;;;;;4144881;28;20053;-62
2022/08/29 08:00:49;;;;;;;3.65;1.60;;;35.70;90.40;;;;;;4150396;28;20056;-62
2022/08/29 08:02:55;;;;;;;3.05;1.90;;;35.70;90.10;;;;;;4161697;28;20057;-62
2022/08/29 08:05:00;;;;;;;2.97;1.90;;;35.70;90.10;;;;;;4161826;28;20557;-63
2022/08/29 08:07:09;;;;;;;2.53;2.00;;;35.70;90.20;;;;;;4161897;28;20049;-63
2022/08/29 08:09:18;;;;;;;2.90;2.13;;;35.70;88.60;;;;;;4161719;28;20053;-62
2022/08/29 08:11:23;;;;;;;2.60;1.70;;;35.70;90.00;;;;;;4161536;28;20037;-62
2022/08/29 08:13:30;;;;;;;3.72;1.80;;;35.70;89.70;;;;;;4161176;28;20111;-62
2022/08/29 08:15:37;;;;;;;5.95;2.97;;;35.70;90.00;;;;;;4160518;28;20572;-62
2022/08/29 08:17:42;;;;;;;6.82;3.25;;;35.80;90.00;;;;;;4158287;28;20041;-62
2022/08/29 08:19:46;;;;;;;4.45;2.80;;;35.70;89.30;;;;;;4159733;28;20037;-62
2022/08/29 08:21:52;;;;;;;3.75;2.28;;;35.60;89.20;;;;;;4159937;28;20045;-62
2022/08/29 08:23:58;;;;;;;3.88;2.30;;;35.60;89.60;;;;;;4160406;28;20045;-62
2022/08/29 08:26:05;;;;;;;3.25;2.30;;;35.60;89.00;;;;;;4159215;28;20590;-62
2022/08/29 08:28:12;;;;;;;3.63;2.45;;;35.50;89.40;;;;;;4159283;28;20083;-62
2022/08/29 08:30:17;;;;;;;3.72;2.60;;;35.60;89.30;;;;;;4156833;28;20068;-62
2022/08/29 08:32:27;;;;;;;2.80;2.05;;;35.60;90.00;;;;;;4160002;28;20048;-63
2022/08/29 08:34:37;;;;;;;4.07;2.40;;;35.70;89.90;;;;;;4158645;28;20045;-63
2022/08/29 08:36:42;;;;;;;3.10;2.00;;;35.70;90.10;;;;;;4159784;28;20072;-62
2022/08/29 08:38:47;;;;;;;4.15;2.17;;;35.70;90.10;;;;;;4159648;28;20072;-63
2022/08/29 08:41:09;;;;;;;3.05;2.05;;;35.50;90.40;;;;;;4159865;28;20041;-63
2022/08/29 08:43:15;;;;;;;3.33;2.00;;;35.30;90.20;;;;;;4159984;28;20045;-62
2022/08/29 08:45:40;;;;;;;4.22;2.10;;;35.30;90.50;;;;;;4159157;28;20620;-63
2022/08/29 08:47:59;;;;;;;3.42;1.88;;;35.30;90.20;;;;;;4159320;28;20057;-63
2022/08/29 08:50:25;;;;;;;6.75;2.00;;;35.30;90.20;;;;;;4159254;28;20088;-63
2022/08/29 08:53:19;;;;;;;3.17;1.30;;;35.10;90.10;;;;;;4093506;29;20530;-64
2022/08/29 08:55:41;;;;;;;6.03;1.50;;;34.40;84.70;;;;;;4064663;29;20477;-64
2022/08/29 08:58:14;;;;;;;9.90;2.40;;;34.00;85.40;;;;;;4093108;29;20043;-63
2022/08/29 09:00:20;;;;;;;2.92;2.10;;;33.90;85.90;;;;;;4094822;28;20082;-63
2022/08/29 09:02:47;;;;;;;2.30;1.40;;;33.80;86.70;;;;;;4109425;28;20118;-63
2022/08/29 09:05:27;;;;;;;2.60;1.50;;;33.40;86.60;;;;;;4109198;28;20043;-65
2022/08/29 09:07:55;;;;;;;1.63;1.33;;;33.40;86.60;;;;;;4093290;29;20119;-64
2022/08/29 09:10:24;;;;;;;2.03;1.60;;;33.30;88.30;;;;;;4077626;29;20056;-65
2022/08/29 09:12:56;;;;;;;2.55;1.30;;;33.00;88.70;;;;;;4080014;29;20055;-65
2022/08/29 09:15:13;;;;;;;3.40;1.67;;;33.00;88.80;;;;;;4080210;29;20083;-64
2022/08/29 09:17:49;;;;;;;4.45;1.65;;;33.20;88.70;;;;;;4080418;29;20048;-64
2022/08/29 09:19:54;;;;;;;2.25;1.70;;;32.90;88.90;;;;;;4080484;29;20044;-64
2022/08/29 09:22:14;;;;;;;3.70;1.75;;;32.90;89.40;;;;;;4080203;29;20051;-66
2022/08/29 09:24:39;;;;;;;2.50;1.75;;;33.10;89.90;;;;;;4080484;29;20060;-64
2022/08/29 09:26:44;;;;;;;4.47;1.80;;;32.80;90.20;;;;;;4095875;29;20047;-63
2022/08/29 09:28:52;;;;;;;4.60;2.00;;;32.90;89.90;;;;;;4095561;28;20537;-63
2022/08/29 09:31:25;;;;;;;7.13;2.10;;;33.20;89.70;;;;;;4079738;29;20459;-65
2022/08/29 09:33:57;;;;;;;5.22;1.98;;;33.40;89.20;;;;;;4094871;28;20133;-64
2022/08/29 09:36:05;;;;;;;2.80;1.90;;;33.40;89.10;;;;;;4048716;29;20131;-63
2022/08/29 09:38:22;;;;;;;3.47;2.13;;;33.40;88.60;;;;;;4099053;28;20047;-63
2022/08/29 09:41:00;;;;;;;5.65;2.13;;;33.50;88.30;;;;;;4111361;28;20054;-63
2022/08/29 09:43:10;;;;;;;3.83;2.10;;;33.60;88.80;;;;;;4126736;28;20037;-63
2022/08/29 09:45:25;;;;;;;3.10;2.10;;;33.50;89.30;;;;;;4160714;28;20049;-63
2022/08/29 09:47:31;;;;;;;3.65;2.20;;;33.50;89.80;;;;;;4160124;28;20056;-64
2022/08/29 09:49:38;;;;;;;5.35;2.08;;;33.50;90.00;;;;;;4161566;28;20103;-63
2022/08/29 09:51:45;;;;;;;6.65;2.80;;;33.50;90.20;;;;;;4161996;28;20107;-63
2022/08/29 09:53:51;;;;;;;5.75;2.30;;;33.50;90.10;;;;;;4160985;28;20415;-64
2022/08/29 09:55:58;;;;;;;11.27;2.85;;;33.50;90.10;;;;;;4161757;28;20473;-62
2022/08/29 09:58:30;;;;;;;6.93;3.08;;;33.50;90.20;;;;;;4175532;28;20068;-62
2022/08/29 10:00:46;;;;;;;8.38;3.53;;;33.60;90.20;;;;;;4158621;28;20471;-63
2022/08/29 10:02:56;;;;;;;4.50;2.72;;;33.50;90.50;;;;;;4158559;28;20038;-63
2022/08/29 10:05:04;;;;;;;5.28;2.90;;;33.20;91.10;;;;;;4161707;28;20073;-63
2022/08/29 10:07:23;;;;;;;5.38;3.38;;;33.10;91.40;;;;;;4160384;28;20053;-63
2022/08/29 10:09:29;;;;;;;4.63;3.50;;;33.10;91.60;;;;;;4159476;28;20051;-63
2022/08/29 10:11:59;;;;;;;6.97;3.25;;;32.90;91.70;;;;;;4161678;28;20037;-63
2022/08/29 10:14:06;;;;;;;6.25;2.90;;;32.90;92.30;;;;;;4160892;28;20076;-62
2022/08/29 10:16:38;;;;;;;4.68;2.83;;;32.80;92.10;;;;;;4160062;28;20068;-62
2022/08/29 10:18:52;;;;;;;6.35;3.20;;;32.70;92.40;;;;;;4160681;28;20104;-63
2022/08/29 10:21:28;;;;;;;4.93;3.33;;;32.40;92.50;;;;;;4160690;28;20068;-63
2022/08/29 10:23:58;;;;;;;6.45;4.88;;;32.30;93.00;;;;;;4159417;28;20581;-65
2022/08/29 10:26:29;;;;;;;8.98;4.55;;;32.00;93.00;;;;;;4161232;28;20075;-63
2022/08/29 10:28:41;;;;;;;5.40;2.90;;;32.10;93.40;;;;;;4156245;28;20652;-65
2022/08/29 10:31:04;;;;;;;5.45;2.95;;;32.10;92.70;;;;;;4161325;28;20041;-63
2022/08/29 10:33:31;;;;;;;8.05;3.42;;;31.90;93.20;;;;;;4158689;28;20435;-64
2022/08/29 10:35:53;;;;;;;8.63;3.40;;;32.10;93.10;;;;;;4159587;28;20099;-63
2022/08/29 10:38:15;;;;;;;5.22;2.80;;;32.20;93.20;;;;;;4160527;28;20037;-64
2022/08/29 10:40:39;;;;;;;8.68;3.38;;;32.00;93.30;;;;;;4160240;28;20069;-64
2022/08/29 10:42:48;;;;;;;8.00;3.00;;;32.10;93.30;;;;;;4161291;28;20522;-66
2022/08/29 10:45:19;;;;;;;8.57;2.78;;;32.10;93.40;;;;;;4158673;28;20037;-66
2022/08/29 10:47:42;;;;;;;8.18;3.17;;;32.00;93.70;;;;;;4160476;28;20061;-65
2022/08/29 10:50:10;;;;;;;5.50;3.08;;;32.00;93.70;;;;;;4170695;28;20053;-65
2022/08/29 10:53:08;;;;;;;6.13;3.03;;;31.50;93.90;;;;;;4158022;28;20060;-65
2022/08/29 10:55:29;;;;;;;5.80;3.22;;;31.70;94.10;;;;;;4157333;28;20095;-65
2022/08/29 10:58:06;;;;;;;5.72;3.10;;;31.70;94.00;;;;;;4157531;28;20492;-65
2022/08/29 11:00:25;;;;;;;10.38;7.68;;;31.70;94.20;;;;;;4159767;28;20049;-65
2022/08/29 11:03:01;;;;;;;6.82;5.03;;;31.60;94.30;;;;;;4158515;28;20042;-64
2022/08/29 11:05:10;;;;;;;15.75;4.65;;;31.70;94.50;;;;;;4159851;28;20045;-64
2022/08/29 11:07:19;;;;;;;8.25;3.92;;;31.60;94.50;;;;;;4156325;28;20049;-64
2022/08/29 11:09:40;;;;;;;8.50;4.60;;;31.60;94.40;;;;;;4157761;28;20080;-64
2022/08/29 11:12:14;;;;;;;9.10;5.78;;;31.50;94.90;;;;;;4131508;28;20061;-64
2022/08/29 11:14:27;;;;;;;11.13;5.80;;;31.20;95.30;;;;;;4157140;28;20496;-64
2022/08/29 11:16:41;;;;;;;13.87;7.87;;;31.20;95.60;;;;;;4149001;28;20496;-63
2022/08/29 11:19:19;;;;;;;17.08;9.10;;;31.10;95.90;;;;;;4173144;28;20056;-65
2022/08/29 11:21:57;;;;;;;13.23;9.48;;;31.00;96.10;;;;;;4156423;28;20050;-63
2022/08/29 11:24:05;;;;;;;18.60;9.27;;;30.60;97.10;;;;;;4159592;28;20072;-63